Time;durP1;ratioP1;P1;durP2;ratioP2;P2;SDS_P1;SDS_P2;PMS_P1;PMS_P2;Temp;Humidity;BMP_temperature;BMP_pressure;BME280_temperature;BME280_humidity;BME280_pressure;Samples;Min_cycle;Max_cycle;Signal;HPM_P1;HPM_P2
2023/10/23 00:02:24;;;;;;;19.90;6.32;;;;;;;16.68;100.00;63722.25;5091052;28;20199;-82
2023/10/23 00:04:52;;;;;;;23.17;6.70;;;;;;;16.71;100.00;63730.50;5094441;28;20234;-84
2023/10/23 00:07:19;;;;;;;14.90;6.43;;;;;;;16.81;100.00;63735.78;5094899;28;20203;-82
2023/10/23 00:09:47;;;;;;;19.17;6.60;;;;;;;16.74;100.00;63731.06;5088723;28;20204;-82
2023/10/23 00:12:13;;;;;;;19.48;6.45;;;;;;;16.58;100.00;63716.47;5088446;28;20230;-82
2023/10/23 00:14:40;;;;;;;17.77;6.13;;;;;;;16.67;100.00;63718.63;5091400;28;20218;-82
2023/10/23 00:17:07;;;;;;;20.88;6.40;;;;;;;16.69;100.00;63725.31;5108408;28;20214;-83
2023/10/23 00:19:36;;;;;;;14.55;5.97;;;;;;;16.49;100.00;63707.09;5092379;28;20254;-83
2023/10/23 00:22:04;;;;;;;13.95;6.25;;;;;;;16.35;100.00;63685.31;5091542;28;20263;-82
2023/10/23 00:24:31;;;;;;;23.60;6.82;;;;;;;16.51;100.00;63704.03;5092705;28;20220;-83
2023/10/23 00:26:58;;;;;;;16.90;6.10;;;;;;;16.51;100.00;63704.03;5099955;28;20230;-82
2023/10/23 00:29:25;;;;;;;19.98;6.57;;;;;;;16.51;100.00;63704.56;5109697;28;20243;-82
2023/10/23 00:31:52;;;;;;;23.60;7.35;;;;;;;16.48;100.00;63701.44;5107752;28;20256;-83
2023/10/23 00:34:19;;;;;;;16.20;6.88;;;;;;;16.48;100.00;63700.94;5095948;28;20216;-83
2023/10/23 00:36:48;;;;;;;11.40;5.65;;;;;;;16.31;100.00;63685.78;5092279;28;20215;-82
2023/10/23 00:39:15;;;;;;;15.00;7.22;;;;;;;16.44;100.00;63699.31;5090167;28;20243;-81
2023/10/23 00:41:44;;;;;;;18.60;7.05;;;;;;;16.35;100.00;63693.03;5092094;28;20422;-81
2023/10/23 00:44:14;;;;;;;17.50;6.80;;;;;;;16.48;100.00;63706.06;5100337;28;20334;-82
2023/10/23 00:46:41;;;;;;;16.40;6.28;;;;;;;16.67;100.00;63723.25;5089911;28;20204;-83
2023/10/23 00:49:09;;;;;;;14.73;6.13;;;;;;;16.60;100.00;63713.41;5091663;28;20558;-81
2023/10/23 00:51:37;;;;;;;13.10;6.38;;;;;;;16.57;100.00;63710.78;5098000;28;20195;-82
2023/10/23 00:54:07;;;;;;;21.08;6.53;;;;;;;16.53;100.00;63703.56;5095329;28;20449;-82
2023/10/23 00:56:35;;;;;;;18.67;6.57;;;;;;;16.67;100.00;63721.19;5106069;28;20405;-82
2023/10/23 00:59:02;;;;;;;22.83;6.70;;;;;;;16.70;100.00;63721.25;5097663;28;20223;-82
2023/10/23 01:01:32;;;;;;;19.88;6.85;;;;;;;16.68;100.00;63719.69;5089322;28;20207;-82
2023/10/23 01:04:00;;;;;;;18.67;5.75;;;;;;;16.54;100.00;63709.72;5089888;28;20223;-83
2023/10/23 01:06:27;;;;;;;11.88;6.30;;;;;;;16.63;100.00;63719.09;5100127;28;20383;-83
2023/10/23 01:08:55;;;;;;;23.73;6.88;;;;;;;16.69;100.00;63722.75;5112307;28;20219;-83
2023/10/23 01:11:24;;;;;;;26.20;7.25;;;;;;;16.55;100.00;63708.22;5114759;28;20196;-83
2023/10/23 01:13:51;;;;;;;20.45;6.13;;;;;;;16.49;100.00;63701.97;5114406;28;20253;-82
2023/10/23 01:16:18;;;;;;;15.55;5.75;;;;;;;16.67;100.00;63718.13;5099724;28;20188;-83
2023/10/23 01:18:46;;;;;;;22.23;7.22;;;;;;;16.55;100.00;63708.72;5093348;28;20220;-82
2023/10/23 01:21:13;;;;;;;14.05;5.82;;;;;;;16.57;100.00;63710.78;5098668;28;20496;-82
2023/10/23 01:23:43;;;;;;;14.27;6.53;;;;;;;16.62;100.00;63718.56;5113845;28;20206;-82
2023/10/23 01:26:11;;;;;;;12.88;6.88;;;;;;;16.66;100.00;63720.16;5108613;28;20449;-83
2023/10/23 01:28:38;;;;;;;17.67;6.32;;;;;;;16.68;100.00;63721.72;5095361;28;20247;-82
2023/10/23 01:31:05;;;;;;;11.52;6.15;;;;;;;16.63;100.00;63719.09;5104121;28;20204;-82
2023/10/23 01:33:33;;;;;;;15.98;6.32;;;;;;;16.73;100.00;63730.03;5112550;28;20220;-83
2023/10/23 01:36:00;;;;;;;15.10;6.45;;;;;;;16.70;100.00;63724.34;5107390;28;20200;-82
2023/10/23 01:38:27;;;;;;;18.98;5.82;;;;;;;16.70;100.00;63728.94;5112872;28;20223;-82
2023/10/23 01:40:55;;;;;;;18.05;6.53;;;;;;;16.73;100.00;63732.59;5093676;28;20259;-82
2023/10/23 01:43:24;;;;;;;13.80;5.88;;;;;;;16.74;100.00;63731.06;5092366;28;20215;-83
2023/10/23 01:45:51;;;;;;;13.80;5.72;;;;;;;16.74;100.00;63728.47;5092349;28;20255;-82
2023/10/23 01:48:18;;;;;;;16.15;6.93;;;;;;;16.61;100.00;63714.44;5092559;28;20243;-81
2023/10/23 01:50:45;;;;;;;13.80;6.32;;;;;;;16.63;100.00;63719.63;5091509;28;20203;-81
2023/10/23 01:53:13;;;;;;;16.13;6.68;;;;;;;16.70;100.00;63726.38;5094099;28;20204;-82
2023/10/23 01:55:40;;;;;;;21.17;7.20;;;;;;;16.63;100.00;63717.06;5093249;28;20203;-82
2023/10/23 01:58:07;;;;;;;14.82;5.85;;;;;;;16.49;100.00;63704.53;5114310;28;20234;-82
2023/10/23 02:00:36;;;;;;;19.42;5.75;;;;;;;16.52;100.00;63708.16;5112276;28;20196;-81
2023/10/23 02:03:04;;;;;;;14.57;6.20;;;;;;;16.81;100.00;63732.66;5109196;28;20562;-82
2023/10/23 02:05:31;;;;;;;19.95;7.50;;;;;;;16.72;100.00;63731.03;5101569;28;20274;-83
2023/10/23 02:07:59;;;;;;;15.55;6.85;;;;;;;16.75;100.00;63726.44;5114654;28;20198;-83
2023/10/23 02:10:26;;;;;;;26.77;7.82;;;;;;;16.74;100.00;63730.56;5111172;28;20395;-82
2023/10/23 02:12:53;;;;;;;20.20;6.85;;;;;;;16.89;100.00;63743.59;5103427;28;20200;-84
2023/10/23 02:15:21;;;;;;;16.05;7.63;;;;;;;16.76;100.00;63730.03;5101148;28;20251;-83
2023/10/23 02:17:50;;;;;;;20.23;6.47;;;;;;;16.71;100.00;63729.97;5112668;28;20234;-81
2023/10/23 02:20:17;;;;;;;21.05;6.82;;;;;;;16.52;100.00;63710.75;5114533;28;20222;-83
2023/10/23 02:22:45;;;;;;;21.52;7.03;;;;;;;16.74;100.00;63728.47;5091577;28;20196;-82
2023/10/23 02:25:12;;;;;;;12.70;6.38;;;;;;;16.71;100.00;63730.50;5093163;28;20217;-82
2023/10/23 02:27:40;;;;;;;12.18;5.63;;;;;;;16.72;100.00;63723.81;5111653;28;20438;-82
2023/10/23 02:30:08;;;;;;;18.88;6.70;;;;;;;16.73;100.00;63726.94;5106267;28;20219;-83
2023/10/23 02:32:35;;;;;;;22.90;6.25;;;;;;;16.70;100.00;63726.38;5093763;28;20207;-84
2023/10/23 02:35:05;;;;;;;18.13;6.40;;;;;;;16.69;100.00;63723.28;5092936;28;20227;-82
2023/10/23 02:37:32;;;;;;;24.63;7.70;;;;;;;16.63;100.00;63711.91;5092546;28;20223;-83
2023/10/23 02:39:59;;;;;;;19.58;6.68;;;;;;;16.71;100.00;63729.97;5100582;28;20246;-83
2023/10/23 02:42:27;;;;;;;16.42;5.72;;;;;;;16.69;100.00;63722.75;5111528;28;20433;-84
2023/10/23 02:44:54;;;;;;;17.05;5.80;;;;;;;16.51;100.00;63704.56;5109767;28;20224;-83
2023/10/23 02:47:22;;;;;;;10.40;5.78;;;;;;;16.63;100.00;63717.06;5093053;28;20275;-80
2023/10/23 02:49:50;;;;;;;14.73;6.28;;;;;;;16.42;100.00;63699.78;5092083;28;20278;-82
2023/10/23 02:52:18;;;;;;;19.27;6.68;;;;;;;16.51;100.00;63704.56;5105648;28;20255;-80
2023/10/23 02:54:45;;;;;;;12.45;6.32;;;;;;;16.56;100.00;63709.25;5111465;28;20218;-81
2023/10/23 02:57:12;;;;;;;21.77;6.30;;;;;;;16.32;100.00;63684.78;5092391;28;20254;-82
2023/10/23 02:59:46;;;;;;;19.48;6.95;;;;;;;16.41;100.00;63694.13;5090810;28;20243;-81
2023/10/23 03:02:13;;;;;;;18.27;6.40;;;;;;;16.38;100.00;63693.06;5108649;28;20196;-82
2023/10/23 03:04:40;;;;;;;15.07;7.45;;;;;;;16.32;100.00;63689.91;5095919;28;20273;-83
2023/10/23 03:07:08;;;;;;;17.88;6.90;;;;;;;16.25;100.00;63680.06;5104194;28;20233;-83
2023/10/23 03:09:37;;;;;;;16.02;6.65;;;;;;;16.24;100.00;63676.44;5100555;28;20374;-83
2023/10/23 03:12:05;;;;;;;24.48;7.20;;;;;;;16.18;100.00;63670.75;5092879;28;20200;-81
2023/10/23 03:14:32;;;;;;;17.58;6.20;;;;;;;16.26;100.00;63675.44;5091526;28;20212;-82
2023/10/23 03:17:00;;;;;;;15.77;5.63;;;;;;;16.11;100.00;63668.06;5106935;28;20208;-81
2023/10/23 03:19:29;;;;;;;16.33;6.88;;;;;;;16.06;100.00;63660.31;5109922;28;20240;-83
2023/10/23 03:21:57;;;;;;;15.63;7.00;;;;;;;16.10;100.00;63662.41;5110391;28;20195;-83
2023/10/23 03:24:24;;;;;;;18.10;6.22;;;;;;;16.16;100.00;63670.69;5105736;28;20221;-83
2023/10/23 03:26:53;;;;;;;16.58;7.35;;;;;;;16.10;100.00;63659.84;5090915;28;20215;-82
2023/10/23 03:29:21;;;;;;;21.30;7.45;;;;;;;16.09;100.00;63663.41;5090734;28;20212;-83
2023/10/23 03:31:48;;;;;;;13.48;6.75;;;;;;;15.97;100.00;63656.06;5110095;28;20214;-82
2023/10/23 03:34:16;;;;;;;16.73;6.78;;;;;;;16.22;100.00;63671.28;5108607;28;20235;-85
2023/10/23 03:36:43;;;;;;;17.52;6.47;;;;;;;16.14;100.00;63671.72;5097343;28;20188;-82
2023/10/23 03:39:10;;;;;;;22.83;7.47;;;;;;;16.15;100.00;63665.03;5098462;28;20253;-82
2023/10/23 03:41:37;;;;;;;24.38;7.13;;;;;;;16.11;100.00;63662.94;5096164;28;20197;-82
2023/10/23 03:44:08;;;;;;;17.02;6.22;;;;;;;16.27;100.00;63681.63;5090633;28;20216;-83
2023/10/23 03:46:36;;;;;;;22.38;7.72;;;;;;;16.23;100.00;63680.56;5103937;28;20202;-82
2023/10/23 03:49:03;;;;;;;16.55;6.90;;;;;;;16.13;100.00;63670.16;5107060;28;20219;-83
2023/10/23 03:51:30;;;;;;;21.92;6.15;;;;;;;16.20;100.00;63669.72;5089791;28;20232;-82
2023/10/23 03:54:00;;;;;;;23.15;6.97;;;;;;;16.30;100.00;63682.69;5095834;28;20267;-81
2023/10/23 03:56:27;;;;;;;20.70;6.70;;;;;;;16.25;100.00;63674.41;5108762;28;20234;-84
2023/10/23 03:58:55;;;;;;;14.35;7.00;;;;;;;16.32;100.00;63684.25;5106391;28;20438;-83
2023/10/23 04:01:24;;;;;;;19.27;6.45;;;;;;;16.37;100.00;63692.53;5091122;28;20226;-82
2023/10/23 04:03:51;;;;;;;17.50;6.47;;;;;;;16.36;100.00;63688.94;5100334;28;20212;-82
2023/10/23 04:06:18;;;;;;;18.77;6.30;;;;;;;16.45;100.00;63695.19;5088589;28;20215;-81
2023/10/23 04:08:46;;;;;;;19.05;6.43;;;;;;;16.48;100.00;63698.34;5102051;28;20260;-82
2023/10/23 04:11:14;;;;;;;25.75;7.95;;;;;;;16.51;100.00;63707.13;5092758;28;20206;-82
2023/10/23 04:13:42;;;;;;;15.57;6.22;;;;;;;16.55;100.00;63711.28;5089429;28;20237;-82
2023/10/23 04:16:09;;;;;;;9.93;5.72;;;;;;;16.60;100.00;63718.56;5090234;28;20267;-83
2023/10/23 04:18:38;;;;;;;16.77;6.95;;;;;;;16.53;100.00;63706.13;5097417;28;20243;-81
2023/10/23 04:21:06;;;;;;;13.07;6.78;;;;;;;16.74;100.00;63727.97;5093571;28;20336;-81
2023/10/23 04:23:33;;;;;;;19.35;6.28;;;;;;;16.71;100.00;63727.94;5108550;28;20208;-82
2023/10/23 04:26:01;;;;;;;19.02;7.20;;;;;;;16.76;100.00;63733.13;5109979;28;20214;-82
2023/10/23 04:28:29;;;;;;;17.75;6.20;;;;;;;16.71;100.00;63725.38;5092824;28;20592;-81
2023/10/23 04:30:56;;;;;;;17.80;6.78;;;;;;;16.71;100.00;63725.38;5093049;28;20192;-82
2023/10/23 04:33:24;;;;;;;18.23;6.07;;;;;;;16.57;100.00;63708.22;5095915;28;20231;-82
2023/10/23 04:35:54;;;;;;;14.88;6.32;;;;;;;16.76;100.00;63730.56;5103974;28;20192;-84
2023/10/23 04:38:22;;;;;;;15.85;6.13;;;;;;;16.69;100.00;63725.31;5093946;28;20412;-82
2023/10/23 04:40:50;;;;;;;13.07;5.88;;;;;;;16.73;100.00;63727.44;5093930;28;20192;-81
2023/10/23 04:43:17;;;;;;;17.33;7.32;;;;;;;16.74;100.00;63728.47;5096247;28;20273;-81
2023/10/23 04:45:44;;;;;;;19.20;8.77;;;;;;;16.78;100.00;63727.50;5109337;28;20191;-82
2023/10/23 04:48:12;;;;;;;23.20;7.65;;;;;;;16.78;100.00;63735.22;5098747;28;20196;-81
2023/10/23 04:50:40;;;;;;;18.30;7.15;;;;;;;16.76;100.00;63730.03;5097272;28;20200;-83
2023/10/23 04:53:09;;;;;;;28.30;9.00;;;;;;;16.82;100.00;63736.28;5094820;28;20224;-83
2023/10/23 04:55:38;;;;;;;23.67;7.40;;;;;;;16.72;100.00;63726.41;5102149;28;20349;-82
2023/10/23 04:58:06;;;;;;;16.27;7.35;;;;;;;16.63;100.00;63717.06;5113345;28;20223;-83
2023/10/23 05:00:35;;;;;;;20.45;8.05;;;;;;;16.86;100.00;63740.97;5112717;28;20188;-82
2023/10/23 05:03:03;;;;;;;21.52;7.78;;;;;;;16.89;100.00;63741.00;5109177;28;20223;-82
2023/10/23 05:05:31;;;;;;;20.30;7.35;;;;;;;16.97;100.00;63754.47;5098085;28;20204;-82
2023/10/23 05:07:58;;;;;;;21.52;7.68;;;;;;;16.97;100.00;63754.47;5094662;28;20212;-82
2023/10/23 05:10:27;;;;;;;15.07;7.38;;;;;;;17.04;100.00;63762.28;5101627;28;20258;-83
2023/10/23 05:12:54;;;;;;;20.02;7.78;;;;;;;17.13;100.00;63769.09;5096313;28;20204;-83
2023/10/23 05:15:22;;;;;;;17.90;7.85;;;;;;;17.09;100.00;63769.53;5095626;28;20203;-83
2023/10/23 05:17:49;;;;;;;15.77;7.43;;;;;;;17.20;100.00;63775.84;5098382;28;20216;-82
2023/10/23 05:20:16;;;;;;;16.80;7.90;;;;;;;17.19;100.00;63777.38;5103941;28;20410;-83
2023/10/23 05:22:44;;;;;;;21.13;8.60;;;;;;;17.25;100.00;63786.19;5093648;28;20196;-81
2023/10/23 05:25:13;;;;;;;12.32;7.47;;;;;;;17.29;100.00;63785.72;5093635;28;20410;-84
2023/10/23 05:27:42;;;;;;;18.15;6.40;;;;;;;17.19;100.00;63774.78;5093054;28;20374;-82
2023/10/23 05:30:10;;;;;;;22.25;7.97;;;;;;;17.30;100.00;63788.81;5096206;28;20208;-84
2023/10/23 05:32:38;;;;;;;16.63;7.20;;;;;;;17.24;100.00;63780.53;5099398;28;20195;-83
2023/10/23 05:35:06;;;;;;;16.98;7.32;;;;;;;17.21;100.00;63779.97;5094284;28;20250;-80
2023/10/23 05:37:35;;;;;;;19.20;7.20;;;;;;;17.08;100.00;63760.78;5092175;28;20216;-83
2023/10/23 05:40:04;;;;;;;22.70;7.47;;;;;;;17.11;100.00;63766.47;5092346;28;20472;-83
2023/10/23 05:42:32;;;;;;;22.08;8.65;;;;;;;17.21;100.00;63777.41;5092129;28;20223;-84
2023/10/23 05:45:02;;;;;;;22.33;7.88;;;;;;;17.21;100.00;63776.88;5095088;28;20216;-83
2023/10/23 05:47:30;;;;;;;16.90;7.50;;;;;;;17.29;100.00;63788.31;5096623;28;20192;-83
2023/10/23 05:49:58;;;;;;;20.98;8.40;;;;;;;17.06;100.00;63766.94;5098244;28;20223;-83
2023/10/23 05:52:25;;;;;;;17.02;7.22;;;;;;;17.30;100.00;63788.81;5104056;28;20199;-84
2023/10/23 05:54:52;;;;;;;21.92;7.07;;;;;;;17.21;100.00;63776.88;5096820;28;20207;-81
2023/10/23 05:57:20;;;;;;;17.45;7.57;;;;;;;17.23;100.00;63784.63;5113477;28;20194;-82
2023/10/23 05:59:46;;;;;;;17.98;6.95;;;;;;;17.26;100.00;63782.59;5106309;28;20540;-83
2023/10/23 06:02:15;;;;;;;25.85;8.15;;;;;;;17.31;100.00;63787.28;5097965;28;20210;-82
2023/10/23 06:04:44;;;;;;;18.17;7.30;;;;;;;17.33;100.00;63792.47;5114545;28;20230;-81
2023/10/23 06:07:12;;;;;;;22.70;7.72;;;;;;;17.33;100.00;63792.47;5113191;28;20256;-83
2023/10/23 06:09:39;;;;;;;18.65;7.30;;;;;;;17.24;100.00;63780.53;5108185;28;20231;-83
2023/10/23 06:12:09;;;;;;;17.52;7.57;;;;;;;17.41;100.00;63799.75;5097885;28;20238;-83
2023/10/23 06:14:36;;;;;;;12.65;6.70;;;;;;;17.10;100.00;63763.38;5092132;28;20223;-82
2023/10/23 06:17:03;;;;;;;15.48;7.18;;;;;;;16.89;100.00;63749.25;5091815;28;20313;-82
2023/10/23 06:19:32;;;;;;;18.83;7.57;;;;;;;16.81;100.00;63738.34;5109981;28;20227;-83
2023/10/23 06:22:00;;;;;;;21.30;7.82;;;;;;;16.99;100.00;63751.41;5114700;28;20247;-82
2023/10/23 06:24:28;;;;;;;14.15;8.07;;;;;;;17.18;100.00;63781.47;5112604;28;20223;-82
2023/10/23 06:26:55;;;;;;;22.60;7.75;;;;;;;17.26;100.00;63782.59;5105039;28;20199;-83
2023/10/23 06:29:24;;;;;;;24.33;8.85;;;;;;;17.01;100.00;63759.16;5104539;28;20283;-82
2023/10/23 06:31:51;;;;;;;22.10;9.05;;;;;;;16.70;100.00;63721.75;5114365;28;20188;-83
2023/10/23 06:34:18;;;;;;;27.38;9.85;;;;;;;16.51;100.00;63706.59;5115917;28;20225;-81
2023/10/23 06:36:47;;;;;;;16.63;8.77;;;;;;;16.53;100.00;63706.63;5111856;28;20213;-81
2023/10/23 06:39:15;;;;;;;27.23;8.52;;;;;;;16.46;100.00;63694.22;5107665;28;20474;-83
2023/10/23 06:41:43;;;;;;;22.33;9.90;;;;;;;16.79;100.00;63731.13;5092575;28;20234;-83
2023/10/23 06:44:11;;;;;;;29.05;10.30;;;;;;;16.95;100.00;63752.38;5092795;28;20528;-82
2023/10/23 06:46:38;;;;;;;18.40;8.75;;;;;;;17.10;100.00;63762.88;5093168;28;20227;-83
2023/10/23 06:49:05;;;;;;;34.47;9.48;;;;;;;17.40;100.00;63796.13;5095985;28;20239;-82
2023/10/23 06:51:33;;;;;;;24.35;9.85;;;;;;;17.37;100.00;63793.00;5095410;28;20263;-83
2023/10/23 06:54:01;;;;;;;42.33;12.30;;;;;;;17.70;100.00;63827.41;5090373;28;20238;-85
2023/10/23 06:56:28;;;;;;;32.53;11.07;;;;;;;17.81;100.00;63844.53;5110156;28;20227;-81
2023/10/23 06:58:55;;;;;;;24.55;10.20;;;;;;;17.60;100.00;63812.34;5111866;28;20247;-81
2023/10/23 07:01:22;;;;;;;25.45;10.70;;;;;;;17.18;100.00;63773.75;5110936;28;20259;-83
2023/10/23 07:03:49;;;;;;;31.52;11.27;;;;;;;17.32;100.00;63794.00;5109380;28;20271;-81
2023/10/23 07:06:16;;;;;;;26.30;10.60;;;;;;;17.59;100.00;63818.50;5096407;28;20277;-83
2023/10/23 07:08:45;;;;;;;28.83;11.05;;;;;;;17.91;100.00;63846.69;5094627;28;20250;-85
2023/10/23 07:11:14;;;;;;;25.30;9.80;;;;;;;18.14;100.00;63875.81;5095248;28;20196;-81
2023/10/23 07:13:42;;;;;;;24.27;10.43;;;;;;;18.40;100.00;63903.44;5093589;28;20272;-81
2023/10/23 07:16:09;;;;;;;27.92;9.63;;;;;;;18.41;100.00;63898.81;5088881;28;20196;-84
2023/10/23 07:18:36;;;;;;;24.42;9.20;;;;;;;18.29;100.00;63891.94;5096748;28;20288;-84
2023/10/23 07:21:03;;;;;;;19.80;8.75;;;;;;;18.54;100.00;63911.81;5098909;28;20261;-82
2023/10/23 07:23:31;;;;;;;24.30;8.20;;;;;;;18.33;100.00;63895.59;5109256;28;20211;-83
2023/10/23 07:26:08;;;;;;;28.00;10.00;;;;;;;18.37;100.00;63895.16;5111609;28;20194;-83
2023/10/23 07:28:38;;;;;;;20.00;8.40;;;;;;;18.47;100.00;63907.09;5100349;28;20222;-83
2023/10/23 07:31:06;;;;;;;25.60;9.25;;;;;;;18.59;100.00;63922.19;5090415;28;20200;-82
2023/10/23 07:33:33;;;;;;;17.65;9.07;;;;;;;18.53;100.00;63916.47;5094719;28;20216;-82
2023/10/23 07:36:02;;;;;;;24.52;8.55;;;;;;;18.42;100.00;63902.94;5093120;28;20206;-80
2023/10/23 07:38:29;;;;;;;21.13;9.48;;;;;;;18.55;100.00;63912.88;5089480;28;20224;-80
2023/10/23 07:40:57;;;;;;;30.15;8.55;;;;;;;18.82;100.00;63944.13;5091396;28;20234;-81
2023/10/23 07:43:25;;;;;;;23.48;9.60;;;;;;;18.97;97.71;63962.31;5089567;28;20232;-82
2023/10/23 07:45:54;;;;;;;27.52;8.82;;;;;;;18.93;98.27;63957.66;5092791;28;20410;-83
2023/10/23 07:48:23;;;;;;;20.23;9.02;;;;;;;18.97;96.15;63959.75;5091968;28;20547;-83
2023/10/23 07:50:51;;;;;;;31.35;8.93;;;;;;;18.82;97.17;63943.59;5095822;28;20203;-82
2023/10/23 07:53:18;;;;;;;27.38;10.40;;;;;;;18.63;97.30;63921.19;5090284;28;20219;-82
2023/10/23 07:55:45;;;;;;;27.42;10.23;;;;;;;18.61;98.19;63922.22;5101289;28;20230;-83
2023/10/23 07:58:12;;;;;;;15.63;9.27;;;;;;;18.80;97.90;63944.59;5111146;28;20201;-83
2023/10/23 08:00:39;;;;;;;20.10;9.05;;;;;;;19.26;95.96;63986.88;5112335;28;20196;-82
2023/10/23 08:03:08;;;;;;;21.98;8.63;;;;;;;19.56;91.99;64023.34;5111247;28;20198;-83
2023/10/23 08:05:35;;;;;;;21.20;8.95;;;;;;;19.34;90.48;64003.53;5113935;28;20211;-82
2023/10/23 08:08:03;;;;;;;22.27;8.80;;;;;;;19.19;93.87;63982.16;5111132;28;20195;-82
2023/10/23 08:10:31;;;;;;;27.70;9.93;;;;;;;19.47;92.79;64013.97;5108011;28;20194;-83
2023/10/23 08:12:58;;;;;;;28.88;10.38;;;;;;;19.68;88.96;64037.91;5091969;28;20206;-84
2023/10/23 08:15:25;;;;;;;23.73;11.18;;;;;;;19.90;88.45;64055.69;5090477;28;20200;-84
2023/10/23 08:17:53;;;;;;;32.35;11.10;;;;;;;19.85;86.58;64045.31;5094862;28;20196;-83
2023/10/23 08:20:22;;;;;;;18.63;8.90;;;;;;;19.57;87.47;64021.28;5091750;28;20231;-82
2023/10/23 08:22:50;;;;;;;34.80;10.68;;;;;;;19.38;89.44;64007.16;5090754;28;20199;-82
2023/10/23 08:25:17;;;;;;;25.33;9.30;;;;;;;19.54;88.23;64014.03;5090766;28;20211;-83
2023/10/23 08:27:44;;;;;;;30.98;9.50;;;;;;;19.42;89.93;64006.69;5110229;28;20201;-83
2023/10/23 08:30:13;;;;;;;27.38;9.05;;;;;;;19.52;89.17;64014.00;5109643;28;20393;-83
2023/10/23 08:32:40;;;;;;;28.75;10.15;;;;;;;19.70;87.77;64037.94;5098181;28;20215;-82
2023/10/23 08:35:08;;;;;;;21.27;9.45;;;;;;;19.83;86.28;64051.50;5093499;28;20227;-84
2023/10/23 08:37:36;;;;;;;31.55;10.35;;;;;;;19.77;86.07;64042.16;5090262;28;20199;-82
2023/10/23 08:40:06;;;;;;;25.45;10.02;;;;;;;19.75;86.18;64043.16;5088259;28;20285;-81
2023/10/23 08:42:34;;;;;;;23.83;10.18;;;;;;;19.72;86.08;64036.94;5089549;28;20404;-82
2023/10/23 08:45:02;;;;;;;18.23;9.38;;;;;;;19.81;85.46;64054.59;5091662;28;20222;-82
2023/10/23 08:47:29;;;;;;;31.10;10.00;;;;;;;19.86;83.58;64054.13;5095291;28;20195;-81
2023/10/23 08:49:59;;;;;;;30.63;10.70;;;;;;;19.94;83.48;64057.28;5090583;28;20211;-81
2023/10/23 08:52:32;;;;;;;27.65;10.70;;;;;;;19.62;83.46;64029.63;5089934;28;20248;-82
2023/10/23 08:55:02;;;;;;;18.33;8.75;;;;;;;19.51;83.92;64013.50;5100861;28;20215;-81
2023/10/23 08:57:30;;;;;;;18.77;8.60;;;;;;;19.43;86.06;64010.31;5112306;28;20192;-83
2023/10/23 08:59:57;;;;;;;20.30;8.65;;;;;;;19.51;85.41;64010.38;5109196;28;20250;-82
2023/10/23 09:02:25;;;;;;;33.70;9.40;;;;;;;19.35;84.65;63999.38;5117329;28;20179;-83
2023/10/23 09:04:53;;;;;;;25.83;9.07;;;;;;;19.61;84.79;64028.03;5115647;28;20210;-83
2023/10/23 09:07:21;;;;;;;19.50;8.55;;;;;;;19.67;82.83;64029.66;5108708;28;20271;-83
2023/10/23 09:09:49;;;;;;;22.42;8.35;;;;;;;19.65;81.89;64027.03;5088961;28;20215;-82
2023/10/23 09:12:32;;;;;;;25.90;8.77;;;;;;;19.64;84.30;64023.94;5088557;28;20260;-82
2023/10/23 09:14:59;;;;;;;27.15;7.65;;;;;;;19.69;85.96;64036.41;5091963;28;20532;-83
2023/10/23 09:17:28;;;;;;;18.90;8.13;;;;;;;19.85;83.56;64048.44;5095955;28;20196;-82
2023/10/23 09:19:55;;;;;;;19.95;9.82;;;;;;;19.81;85.70;64048.91;5091994;28;20239;-82
2023/10/23 09:22:29;;;;;;;22.55;12.15;;;;;;;19.76;90.08;64043.69;5089080;28;20211;-83
2023/10/23 09:24:57;;;;;;;33.30;10.75;;;;;;;19.72;86.59;64032.28;5089585;28;20230;-82
2023/10/23 09:27:24;;;;;;;24.58;10.20;;;;;;;20.01;83.54;64070.28;5092314;28;20263;-83
2023/10/23 09:30:00;;;;;;;21.35;7.93;;;;;;;20.30;83.91;64098.00;5096109;28;20220;-83
2023/10/23 09:32:27;;;;;;;36.83;10.73;;;;;;;20.38;79.60;64111.00;5100140;28;20195;-82
2023/10/23 09:34:56;;;;;;;33.38;9.13;;;;;;;20.19;81.51;64088.59;5092652;28;20219;-82
2023/10/23 09:37:25;;;;;;;25.73;8.82;;;;;;;20.30;78.96;64097.47;5091650;28;20219;-83
2023/10/23 09:39:53;;;;;;;21.63;9.63;;;;;;;20.63;77.17;64134.50;5093175;28;20235;-81
2023/10/23 09:42:23;;;;;;;20.98;7.68;;;;;;;20.58;74.50;64129.81;5094320;28;20196;-82
2023/10/23 09:44:52;;;;;;;25.45;7.80;;;;;;;20.82;74.36;64154.34;5093918;28;20272;-83
2023/10/23 09:47:22;;;;;;;20.83;7.00;;;;;;;21.37;71.27;64209.19;5097262;28;20196;-83
2023/10/23 09:49:52;;;;;;;17.48;7.88;;;;;;;21.35;69.52;64209.69;5096718;28;20208;-81
2023/10/23 09:52:24;;;;;;;21.85;7.57;;;;;;;21.17;71.05;64187.78;5092749;28;20245;-85
2023/10/23 09:54:57;;;;;;;26.80;8.27;;;;;;;21.15;72.36;64185.69;5092628;28;20223;-84
2023/10/23 09:57:33;;;;;;;26.70;8.15;;;;;;;21.18;73.16;64191.94;5092547;28;20214;-80
2023/10/23 10:00:04;;;;;;;22.85;9.52;;;;;;;21.18;71.05;64191.94;5093534;28;20400;-82
2023/10/23 10:02:36;;;;;;;28.13;8.60;;;;;;;21.47;69.71;64219.63;5093918;28;20468;-83
2023/10/23 10:05:07;;;;;;;25.58;8.35;;;;;;;21.90;68.68;64263.53;5095168;28;20310;-82
2023/10/23 10:07:42;;;;;;;24.13;8.48;;;;;;;22.13;65.44;64293.28;5092311;28;20337;-82
2023/10/23 10:10:12;;;;;;;25.88;8.88;;;;;;;22.10;63.85;64284.97;5093390;28;20287;-84
2023/10/23 10:12:41;;;;;;;21.75;7.35;;;;;;;21.69;65.88;64242.09;5092520;28;20262;-83
2023/10/23 10:15:10;;;;;;;23.27;8.52;;;;;;;21.88;66.05;64266.63;5093648;28;20208;-83
2023/10/23 10:17:40;;;;;;;22.42;7.93;;;;;;;22.04;64.82;64278.19;5096314;28;20204;-82
2023/10/23 10:20:10;;;;;;;15.70;7.05;;;;;;;21.97;65.14;64271.38;5098151;28;20235;-82
2023/10/23 10:22:39;;;;;;;17.35;7.38;;;;;;;21.92;64.54;64263.03;5110249;28;20187;-82
2023/10/23 10:25:09;;;;;;;20.25;7.18;;;;;;;22.20;64.69;64298.00;5092494;28;20231;-83
2023/10/23 10:27:37;;;;;;;25.73;7.85;;;;;;;22.33;63.79;64311.06;5093933;28;20196;-83
2023/10/23 10:30:06;;;;;;;26.33;8.30;;;;;;;22.49;64.83;64330.91;5092253;28;20280;-82
2023/10/23 10:32:34;;;;;;;19.20;8.68;;;;;;;22.96;61.44;64379.56;5095981;28;20207;-82
2023/10/23 10:35:06;;;;;;;28.48;9.15;;;;;;;23.28;59.40;64407.34;5094377;28;20215;-82
2023/10/23 10:37:33;;;;;;;28.77;9.30;;;;;;;23.66;58.50;64447.09;5102868;28;20270;-83
2023/10/23 10:40:09;;;;;;;25.08;7.57;;;;;;;23.56;57.51;64442.34;5100941;28;20266;-83
2023/10/23 10:42:39;;;;;;;15.85;7.10;;;;;;;23.65;56.38;64446.56;5100162;28;20188;-82
2023/10/23 10:45:18;;;;;;;20.08;7.15;;;;;;;23.66;57.00;64444.50;5115372;28;20271;-81
2023/10/23 10:47:49;;;;;;;24.88;7.40;;;;;;;23.60;56.49;64446.00;5108668;28;20188;-83
2023/10/23 10:50:36;;;;;;;22.33;6.93;;;;;;;23.72;56.59;64453.34;5091668;28;20212;-82
2023/10/23 10:53:05;;;;;;;18.27;7.35;;;;;;;23.92;56.20;64479.47;5103609;28;20195;-81
2023/10/23 10:55:33;;;;;;;23.70;8.20;;;;;;;23.78;55.31;64462.75;5110712;28;20188;-82
2023/10/23 10:58:01;;;;;;;24.00;7.82;;;;;;;23.74;54.91;64458.59;5114532;28;20205;-82
2023/10/23 11:00:32;;;;;;;28.65;8.25;;;;;;;23.62;54.58;64448.09;5105989;28;20227;-82
2023/10/23 11:02:59;;;;;;;29.92;8.13;;;;;;;23.44;55.56;64426.66;5092299;28;20359;-82
2023/10/23 11:05:27;;;;;;;22.02;8.20;;;;;;;23.66;54.96;64444.50;5093340;28;20200;-83
2023/10/23 11:07:56;;;;;;;22.55;7.60;;;;;;;23.51;55.15;64433.97;5092652;28;20192;-82
2023/10/23 11:10:25;;;;;;;23.95;7.88;;;;;;;23.63;54.78;64446.53;5091349;28;20196;-82
2023/10/23 11:12:53;;;;;;;21.98;7.32;;;;;;;23.77;54.00;64459.13;5091154;28;20192;-81
2023/10/23 11:15:24;;;;;;;19.98;7.22;;;;;;;23.81;54.04;64465.91;5096856;28;20208;-82
2023/10/23 11:17:51;;;;;;;19.15;7.38;;;;;;;23.72;53.81;64455.97;5094026;28;20219;-83
2023/10/23 11:20:18;;;;;;;20.15;7.00;;;;;;;23.79;53.14;64466.41;5093431;28;20235;-83
2023/10/23 11:22:47;;;;;;;18.73;7.10;;;;;;;23.82;53.11;64469.56;5111702;28;20207;-81
2023/10/23 11:25:17;;;;;;;17.95;7.72;;;;;;;23.91;52.49;64476.38;5111383;28;20207;-83